Time;durP1;ratioP1;P1;durP2;ratioP2;P2;SDS_P1;SDS_P2;PMS_P1;PMS_P2;Temp;Humidity;BMP_temperature;BMP_pressure;BME280_temperature;BME280_humidity;BME280_pressure;Samples;Min_cycle;Max_cycle;Signal;HPM_P1;HPM_P2
2023/06/28 00:01:08;;;;;;;15.95;8.63;;;;;;;;;;5072553;28;20374;-51
2023/06/28 00:03:34;;;;;;;17.05;7.97;;;;;;;;;;5072615;28;20028;-54
2023/06/28 00:06:00;;;;;;;17.80;8.50;;;;;;;;;;5072118;28;20087;-55
2023/06/28 00:08:26;;;;;;;14.60;7.90;;;;;;;;;;5072168;28;20024;-51
2023/06/28 00:10:52;;;;;;;18.15;8.85;;;;;;;;;;5072172;28;20021;-57
2023/06/28 00:13:18;;;;;;;16.25;7.97;;;;;;;;;;5071937;28;20016;-58
2023/06/28 00:15:45;;;;;;;17.50;8.00;;;;;;;;;;5071809;28;20029;-54
2023/06/28 00:18:11;;;;;;;15.95;8.02;;;;;;;;;;5071812;28;20020;-54
2023/06/28 00:20:37;;;;;;;18.80;7.93;;;;;;;;;;5072040;28;20174;-54
2023/06/28 00:23:03;;;;;;;15.90;8.05;;;;;;;;;;5070895;28;20496;-54
2023/06/28 00:25:29;;;;;;;17.52;8.23;;;;;;;;;;5071856;28;20077;-52
2023/06/28 00:27:55;;;;;;;20.92;8.55;;;;;;;;;;5071706;28;20028;-53
2023/06/28 00:30:21;;;;;;;18.45;8.30;;;;;;;;;;5071465;28;20032;-52
2023/06/28 00:32:47;;;;;;;17.05;8.70;;;;;;;;;;5071603;28;20099;-51
2023/06/28 00:35:13;;;;;;;17.08;8.48;;;;;;;;;;5071440;28;20396;-52
2023/06/28 00:37:39;;;;;;;16.42;8.30;;;;;;;;;;5071951;28;20027;-54
2023/06/28 00:40:06;;;;;;;18.83;8.77;;;;;;;;;;5058946;28;20481;-58
2023/06/28 00:42:32;;;;;;;17.10;8.38;;;;;;;;;;5051826;28;20052;-54
2023/06/28 00:44:59;;;;;;;19.85;8.60;;;;;;;;;;5051740;28;20106;-53
2023/06/28 00:47:25;;;;;;;19.38;8.43;;;;;;;;;;5051728;28;20060;-50
2023/06/28 00:49:53;;;;;;;19.75;8.40;;;;;;;;;;5051758;28;20032;-54
2023/06/28 00:52:19;;;;;;;15.85;8.05;;;;;;;;;;5051588;28;20104;-51
2023/06/28 00:54:45;;;;;;;16.17;8.43;;;;;;;;;;5051750;28;20023;-53
2023/06/28 00:57:11;;;;;;;19.25;8.38;;;;;;;;;;5052266;28;20071;-52
2023/06/28 00:59:37;;;;;;;18.65;8.48;;;;;;;;;;5052538;28;20370;-53
2023/06/28 01:02:03;;;;;;;16.75;8.27;;;;;;;;;;5052539;28;20021;-54
2023/06/28 01:04:29;;;;;;;16.70;8.07;;;;;;;;;;5060017;28;20121;-56
2023/06/28 01:06:59;;;;;;;19.33;8.00;;;;;;;;;;5067543;28;20052;-51
2023/06/28 01:09:25;;;;;;;17.42;7.78;;;;;;;;;;5068688;28;20024;-56
2023/06/28 01:11:53;;;;;;;19.63;8.00;;;;;;;;;;5060102;28;20017;-53
2023/06/28 01:14:19;;;;;;;16.73;8.02;;;;;;;;;;5052088;28;20032;-57
2023/06/28 01:16:49;;;;;;;15.48;7.68;;;;;;;;;;5062746;28;20024;-54
2023/06/28 01:19:16;;;;;;;18.55;8.35;;;;;;;;;;5063331;28;20404;-57
2023/06/28 01:21:43;;;;;;;26.23;8.75;;;;;;;;;;5071943;28;20841;-56
2023/06/28 01:24:10;;;;;;;16.15;7.78;;;;;;;;;;5070663;28;20377;-53
2023/06/28 01:26:37;;;;;;;19.23;8.35;;;;;;;;;;5068689;28;20712;-55
2023/06/28 01:29:03;;;;;;;15.98;8.02;;;;;;;;;;5063595;28;20527;-52
2023/06/28 01:31:30;;;;;;;18.33;8.10;;;;;;;;;;5071789;28;20100;-56
2023/06/28 01:33:56;;;;;;;18.50;8.82;;;;;;;;;;5071952;28;20016;-53
2023/06/28 01:36:22;;;;;;;17.67;8.15;;;;;;;;;;5074910;28;20124;-54
2023/06/28 01:38:48;;;;;;;17.85;8.30;;;;;;;;;;5067336;28;20048;-55
2023/06/28 01:41:15;;;;;;;17.10;8.40;;;;;;;;;;5075686;28;20052;-55
2023/06/28 01:43:41;;;;;;;18.02;8.35;;;;;;;;;;5075619;28;20024;-53
2023/06/28 01:46:07;;;;;;;17.10;7.95;;;;;;;;;;5075383;28;20017;-56
2023/06/28 01:48:33;;;;;;;16.38;8.32;;;;;;;;;;5075600;28;20044;-55
2023/06/28 01:51:00;;;;;;;16.38;9.43;;;;;;;;;;5075353;28;20024;-52
2023/06/28 01:53:26;;;;;;;18.48;8.73;;;;;;;;;;5075516;28;20131;-55
2023/06/28 01:55:52;;;;;;;19.50;9.00;;;;;;;;;;5071461;28;20093;-56
2023/06/28 01:58:18;;;;;;;17.23;8.05;;;;;;;;;;5070941;28;20097;-56
2023/06/28 02:00:44;;;;;;;15.48;7.97;;;;;;;;;;5075668;28;20123;-51
2023/06/28 02:03:10;;;;;;;21.90;8.88;;;;;;;;;;5075182;28;20056;-52
2023/06/28 02:05:36;;;;;;;17.50;8.32;;;;;;;;;;5073658;28;20396;-56
2023/06/28 02:08:02;;;;;;;18.63;8.43;;;;;;;;;;5075234;28;20021;-56
2023/06/28 02:10:28;;;;;;;18.88;9.30;;;;;;;;;;5074590;28;20020;-53
2023/06/28 02:12:54;;;;;;;19.98;8.73;;;;;;;;;;5074462;28;20400;-53
2023/06/28 02:15:21;;;;;;;16.90;8.52;;;;;;;;;;5074053;28;20032;-51
2023/06/28 02:17:50;;;;;;;17.75;8.77;;;;;;;;;;5074345;28;20089;-54
2023/06/28 02:20:16;;;;;;;;;;;;;;;;;;5074876;28;20028;-53
2023/06/28 02:22:42;;;;;;;17.27;8.57;;;;;;;;;;5073015;28;19957;-54
2023/06/28 02:25:08;;;;;;;16.52;8.80;;;;;;;;;;5073989;28;20085;-54
2023/06/28 02:27:34;;;;;;;19.17;9.05;;;;;;;;;;5074563;28;20028;-53
2023/06/28 02:30:00;;;;;;;17.60;9.02;;;;;;;;;;5074061;28;20028;-53
2023/06/28 02:32:30;;;;;;;20.80;9.30;;;;;;;;;;5073882;28;20031;-52
2023/06/28 02:34:56;;;;;;;16.80;8.63;;;;;;;;;;5073167;28;20023;-55
2023/06/28 02:37:22;;;;;;;19.63;9.48;;;;;;;;;;5073943;28;20028;-50
2023/06/28 02:39:48;;;;;;;17.70;9.10;;;;;;;;;;5073662;28;20111;-55
2023/06/28 02:42:14;;;;;;;17.98;8.75;;;;;;;;;;5073474;28;20097;-53
2023/06/28 02:44:40;;;;;;;17.65;9.20;;;;;;;;;;5073354;28;20024;-52
2023/06/28 02:47:06;;;;;;;17.85;9.00;;;;;;;;;;5072597;28;20020;-51
2023/06/28 02:49:32;;;;;;;19.90;8.88;;;;;;;;;;5073287;28;20029;-55
2023/06/28 02:51:58;;;;;;;18.73;9.13;;;;;;;;;;5072834;28;20536;-55
2023/06/28 02:54:24;;;;;;;20.15;9.63;;;;;;;;;;5072458;28;20211;-51
2023/06/28 02:56:50;;;;;;;19.67;9.52;;;;;;;;;;5072776;28;20427;-54
2023/06/28 02:59:16;;;;;;;19.33;9.93;;;;;;;;;;5073103;28;20033;-52
2023/06/28 03:01:42;;;;;;;18.55;9.35;;;;;;;;;;5071924;28;20400;-50
2023/06/28 03:04:08;;;;;;;17.73;8.77;;;;;;;;;;5071590;28;20050;-54
2023/06/28 03:06:35;;;;;;;17.48;9.57;;;;;;;;;;5066851;28;20064;-49
2023/06/28 03:09:01;;;;;;;19.63;9.60;;;;;;;;;;5071236;28;20017;-51
2023/06/28 03:11:27;;;;;;;17.60;9.13;;;;;;;;;;5057053;28;20489;-56
2023/06/28 03:13:53;;;;;;;19.08;9.57;;;;;;;;;;5060820;28;20021;-53
2023/06/28 03:16:19;;;;;;;17.88;9.48;;;;;;;;;;5052962;28;20378;-54
2023/06/28 03:18:45;;;;;;;19.90;9.40;;;;;;;;;;5052816;28;20036;-52
2023/06/28 03:21:11;;;;;;;19.85;10.40;;;;;;;;;;5052946;28;20112;-51
2023/06/28 03:23:37;;;;;;;16.58;9.15;;;;;;;;;;5052403;28;20033;-52
2023/06/28 03:26:03;;;;;;;19.85;9.23;;;;;;;;;;5059397;28;20024;-50
2023/06/28 03:28:29;;;;;;;17.63;9.52;;;;;;;;;;5063389;28;20028;-53
2023/06/28 03:30:56;;;;;;;21.27;9.05;;;;;;;;;;5072940;28;20028;-57
2023/06/28 03:33:22;;;;;;;18.10;8.93;;;;;;;;;;5072531;28;20493;-57
2023/06/28 03:35:48;;;;;;;17.15;9.27;;;;;;;;;;5071535;28;20044;-54
2023/06/28 03:38:15;;;;;;;18.52;9.60;;;;;;;;;;5071189;28;20024;-54
2023/06/28 03:40:41;;;;;;;18.25;9.50;;;;;;;;;;5072819;28;20028;-50
2023/06/28 03:43:07;;;;;;;19.45;9.52;;;;;;;;;;5073020;28;20025;-55
2023/06/28 03:45:33;;;;;;;16.80;8.82;;;;;;;;;;5055333;28;20485;-56
2023/06/28 03:47:59;;;;;;;21.20;10.20;;;;;;;;;;5053039;28;20025;-49
2023/06/28 03:50:25;;;;;;;19.75;9.13;;;;;;;;;;5053250;28;20033;-54
2023/06/28 03:52:51;;;;;;;17.60;8.98;;;;;;;;;;5052011;28;20074;-52
2023/06/28 03:55:17;;;;;;;18.90;9.15;;;;;;;;;;5052902;28;20024;-57
2023/06/28 03:57:43;;;;;;;18.20;8.98;;;;;;;;;;5052829;28;20499;-56
2023/06/28 04:00:11;;;;;;;19.65;9.48;;;;;;;;;;5053203;28;20073;-56
2023/06/28 04:02:37;;;;;;;20.85;9.70;;;;;;;;;;5052756;28;20025;-51
2023/06/28 04:05:03;;;;;;;20.15;9.18;;;;;;;;;;5052931;28;20151;-53
2023/06/28 04:07:29;;;;;;;18.70;9.60;;;;;;;;;;5053027;28;20128;-48
2023/06/28 04:09:55;;;;;;;18.73;9.40;;;;;;;;;;5052899;28;20481;-51
2023/06/28 04:12:21;;;;;;;18.40;10.55;;;;;;;;;;5052731;28;20385;-54
2023/06/28 04:14:47;;;;;;;16.70;9.40;;;;;;;;;;5052586;28;20028;-53
2023/06/28 04:17:13;;;;;;;16.92;9.50;;;;;;;;;;5051854;28;20029;-55
2023/06/28 04:19:39;;;;;;;20.98;10.65;;;;;;;;;;5052517;28;20049;-52
2023/06/28 04:22:05;;;;;;;17.35;9.52;;;;;;;;;;5052268;28;20166;-50
2023/06/28 04:24:31;;;;;;;18.75;10.20;;;;;;;;;;5052599;28;20035;-53
2023/06/28 04:27:00;;;;;;;18.90;10.07;;;;;;;;;;5052895;28;20470;-53
2023/06/28 04:29:27;;;;;;;19.75;9.70;;;;;;;;;;5052119;28;20090;-57
2023/06/28 04:31:53;;;;;;;18.15;10.90;;;;;;;;;;5052131;28;20552;-54
2023/06/28 04:34:19;;;;;;;24.55;11.23;;;;;;;;;;5051291;28;20389;-54
2023/06/28 04:36:46;;;;;;;20.55;10.65;;;;;;;;;;5051202;28;20028;-50
2023/06/28 04:39:12;;;;;;;21.20;10.88;;;;;;;;;;5052269;28;20098;-54
2023/06/28 04:41:38;;;;;;;19.35;10.13;;;;;;;;;;5052224;28;20092;-52
2023/06/28 04:44:09;;;;;;;19.33;10.63;;;;;;;;;;5052547;28;20094;-56
2023/06/28 04:46:35;;;;;;;17.77;10.43;;;;;;;;;;5052491;28;20017;-56
2023/06/28 04:49:02;;;;;;;18.30;9.88;;;;;;;;;;5051178;28;20032;-54
2023/06/28 04:51:29;;;;;;;18.98;10.90;;;;;;;;;;5052290;28;20436;-56
2023/06/28 04:53:55;;;;;;;22.45;10.45;;;;;;;;;;5052124;28;20079;-59
2023/06/28 04:56:21;;;;;;;19.75;11.23;;;;;;;;;;5052478;28;20025;-57
2023/06/28 04:58:47;;;;;;;22.52;10.45;;;;;;;;;;5052067;28;20025;-51
2023/06/28 05:01:13;;;;;;;23.73;10.60;;;;;;;;;;5052350;28;20542;-57
2023/06/28 05:03:39;;;;;;;23.38;10.85;;;;;;;;;;5051912;28;20028;-53
2023/06/28 05:06:06;;;;;;;19.33;10.27;;;;;;;;;;5051913;28;20017;-52
2023/06/28 05:08:35;;;;;;;19.77;11.32;;;;;;;;;;5051652;28;20051;-55
2023/06/28 05:11:01;;;;;;;21.58;10.77;;;;;;;;;;5053948;28;20048;-54
2023/06/28 05:13:27;;;;;;;18.63;9.98;;;;;;;;;;5053786;28;20456;-54
2023/06/28 05:15:53;;;;;;;19.05;10.90;;;;;;;;;;5055011;28;20096;-52
2023/06/28 05:18:19;;;;;;;20.48;11.00;;;;;;;;;;5055143;28;20025;-54
2023/06/28 05:20:46;;;;;;;23.20;11.35;;;;;;;;;;5054876;28;20036;-54
2023/06/28 05:23:12;;;;;;;20.10;10.88;;;;;;;;;;5054770;28;20029;-54
2023/06/28 05:25:38;;;;;;;17.98;9.98;;;;;;;;;;5054718;28;20029;-51
2023/06/28 05:28:05;;;;;;;19.40;10.70;;;;;;;;;;5053704;28;20048;-55
2023/06/28 05:30:31;;;;;;;21.05;11.00;;;;;;;;;;5054520;28;20044;-56
2023/06/28 05:32:58;;;;;;;18.08;9.75;;;;;;;;;;5055944;28;20025;-52
2023/06/28 05:35:24;;;;;;;21.95;11.05;;;;;;;;;;5054118;28;20013;-51
2023/06/28 05:37:50;;;;;;;20.58;10.93;;;;;;;;;;5053586;28;20103;-52
2023/06/28 05:40:16;;;;;;;19.90;10.50;;;;;;;;;;5053321;28;20608;-51
2023/06/28 05:42:42;;;;;;;20.13;10.77;;;;;;;;;;5054739;28;20112;-52
2023/06/28 05:45:09;;;;;;;21.73;10.77;;;;;;;;;;5054613;28;20406;-50
2023/06/28 05:47:35;;;;;;;19.48;10.10;;;;;;;;;;5054586;28;20033;-53
2023/06/28 05:50:01;;;;;;;19.90;9.98;;;;;;;;;;5055025;28;20035;-54
2023/06/28 05:52:27;;;;;;;20.70;10.65;;;;;;;;;;5054991;28;20045;-57
2023/06/28 05:54:53;;;;;;;20.45;10.98;;;;;;;;;;5054476;28;20057;-50
2023/06/28 05:57:19;;;;;;;20.60;10.80;;;;;;;;;;5053674;28;20067;-53
2023/06/28 05:59:45;;;;;;;20.13;10.40;;;;;;;;;;5053350;28;20029;-52
2023/06/28 06:02:11;;;;;;;19.70;10.63;;;;;;;;;;5054429;28;20426;-55
2023/06/28 06:04:37;;;;;;;21.85;9.57;;;;;;;;;;5054056;28;20037;-54
2023/06/28 06:07:03;;;;;;;19.83;9.60;;;;;;;;;;5052737;28;20107;-51
2023/06/28 06:09:30;;;;;;;20.90;10.90;;;;;;;;;;5054009;28;20100;-54
2023/06/28 06:11:56;;;;;;;21.17;10.68;;;;;;;;;;5053855;28;20029;-57
2023/06/28 06:14:22;;;;;;;21.75;10.73;;;;;;;;;;5053932;28;20461;-55
2023/06/28 06:16:48;;;;;;;20.58;10.65;;;;;;;;;;5053991;28;20033;-54
2023/06/28 06:19:14;;;;;;;18.50;10.35;;;;;;;;;;5054382;28;20040;-55
2023/06/28 06:21:40;;;;;;;21.60;11.70;;;;;;;;;;5051030;28;20342;-50
2023/06/28 06:24:09;;;;;;;21.60;10.90;;;;;;;;;;5053631;28;20035;-52
2023/06/28 06:26:35;;;;;;;22.77;11.05;;;;;;;;;;5053930;28;20405;-52
2023/06/28 06:29:01;;;;;;;19.10;9.88;;;;;;;;;;5052326;28;20036;-51
2023/06/28 06:31:28;;;;;;;19.17;10.90;;;;;;;;;;5053480;28;20036;-56
2023/06/28 06:33:56;;;;;;;22.55;10.30;;;;;;;;;;5053639;28;20099;-57
2023/06/28 06:36:22;;;;;;;19.40;10.38;;;;;;;;;;5053138;28;20043;-55
2023/06/28 06:38:48;;;;;;;17.45;10.02;;;;;;;;;;5052282;28;20455;-53
2023/06/28 06:41:14;;;;;;;21.70;11.38;;;;;;;;;;5053225;28;20370;-54
2023/06/28 06:43:40;;;;;;;19.23;10.75;;;;;;;;;;5052138;28;20074;-58
2023/06/28 06:46:06;;;;;;;28.20;11.95;;;;;;;;;;5053048;28;20059;-55
2023/06/28 06:48:32;;;;;;;25.35;10.48;;;;;;;;;;5051920;28;20021;-53
2023/06/28 06:50:58;;;;;;;26.20;11.18;;;;;;;;;;5053067;28;20033;-53
2023/06/28 06:53:24;;;;;;;23.38;10.93;;;;;;;;;;5053306;28;20728;-51
2023/06/28 06:55:50;;;;;;;18.90;9.80;;;;;;;;;;5072589;28;20082;-50
2023/06/28 06:58:16;;;;;;;19.35;10.38;;;;;;;;;;5064648;28;20477;-53
2023/06/28 07:00:42;;;;;;;20.05;10.68;;;;;;;;;;5072798;28;20487;-50
2023/06/28 07:03:08;;;;;;;20.83;10.50;;;;;;;;;;5064390;28;20487;-50
2023/06/28 07:05:34;;;;;;;19.60;11.02;;;;;;;;;;5070425;28;20032;-59
2023/06/28 07:08:00;;;;;;;20.50;10.68;;;;;;;;;;5082942;28;20032;-57
2023/06/28 07:10:26;;;;;;;22.95;11.88;;;;;;;;;;5062699;28;20032;-54
2023/06/28 07:12:52;;;;;;;24.15;11.73;;;;;;;;;;5062787;28;20020;-51
2023/06/28 07:15:18;;;;;;;21.70;11.52;;;;;;;;;;5064395;28;20028;-55
2023/06/28 07:17:44;;;;;;;18.88;10.77;;;;;;;;;;5064424;28;20027;-56
2023/06/28 07:20:10;;;;;;;18.60;11.18;;;;;;;;;;5072741;28;20028;-53
2023/06/28 07:22:36;;;;;;;22.70;11.07;;;;;;;;;;5062537;28;20405;-54
2023/06/28 07:25:04;;;;;;;22.65;10.60;;;;;;;;;;5059074;28;20017;-53
2023/06/28 07:27:30;;;;;;;21.48;10.95;;;;;;;;;;5052370;28;20064;-56
2023/06/28 07:29:57;;;;;;;25.63;11.55;;;;;;;;;;5051126;28;20094;-51
2023/06/28 07:32:26;;;;;;;19.90;10.32;;;;;;;;;;5064583;28;20033;-51
2023/06/28 07:34:52;;;;;;;21.45;10.65;;;;;;;;;;5066618;28;20107;-52
2023/06/28 07:37:19;;;;;;;18.98;10.50;;;;;;;;;;5064912;28;20851;-55
2023/06/28 07:39:45;;;;;;;18.38;10.77;;;;;;;;;;5067909;28;20488;-52
2023/06/28 07:42:12;;;;;;;19.50;10.40;;;;;;;;;;5051991;28;20025;-54
2023/06/28 07:44:38;;;;;;;17.88;10.30;;;;;;;;;;5051806;28;20024;-53
2023/06/28 07:47:04;;;;;;;17.02;9.88;;;;;;;;;;5054241;28;20116;-55
2023/06/28 07:49:30;;;;;;;16.98;9.98;;;;;;;;;;5068884;28;20024;-54
2023/06/28 07:51:58;;;;;;;23.58;10.48;;;;;;;;;;5064286;28;20042;-52
2023/06/28 07:54:24;;;;;;;19.35;9.73;;;;;;;;;;5071284;28;20103;-51
2023/06/28 07:56:50;;;;;;;18.13;11.13;;;;;;;;;;5071256;28;20024;-50
2023/06/28 07:59:16;;;;;;;20.58;10.15;;;;;;;;;;5068195;28;20368;-52
2023/06/28 08:01:42;;;;;;;20.13;10.52;;;;;;;;;;5067418;28;20388;-51
2023/06/28 08:04:08;;;;;;;18.52;10.48;;;;;;;;;;5063111;28;20112;-53
2023/06/28 08:06:34;;;;;;;24.92;11.23;;;;;;;;;;5061680;28;20116;-50
2023/06/28 08:09:00;;;;;;;20.08;11.48;;;;;;;;;;5063932;28;20163;-52
2023/06/28 08:11:27;;;;;;;19.33;11.40;;;;;;;;;;5070863;28;20028;-58
2023/06/28 08:13:54;;;;;;;19.40;10.88;;;;;;;;;;5071128;28;20074;-56
2023/06/28 08:16:20;;;;;;;18.33;10.85;;;;;;;;;;5071245;28;20591;-53
2023/06/28 08:18:46;;;;;;;17.17;10.13;;;;;;;;;;5071315;28;20021;-54
2023/06/28 08:21:12;;;;;;;21.63;11.02;;;;;;;;;;5071374;28;20096;-54
2023/06/28 08:23:38;;;;;;;20.63;11.52;;;;;;;;;;5071166;28;20479;-56
2023/06/28 08:26:04;;;;;;;16.90;11.25;;;;;;;;;;5070052;28;20024;-54
2023/06/28 08:28:30;;;;;;;19.25;10.90;;;;;;;;;;5071375;28;20107;-58
2023/06/28 08:30:56;;;;;;;20.23;11.18;;;;;;;;;;5071330;28;20024;-55
2023/06/28 08:33:25;;;;;;;19.50;10.52;;;;;;;;;;5071382;28;20024;-54
2023/06/28 08:35:51;;;;;;;18.33;10.65;;;;;;;;;;5071137;28;20020;-55
2023/06/28 08:38:17;;;;;;;17.00;10.68;;;;;;;;;;5071163;28;20546;-54
2023/06/28 08:40:43;;;;;;;21.17;10.50;;;;;;;;;;5071267;28;20037;-59
2023/06/28 08:43:11;;;;;;;21.38;10.85;;;;;;;;;;5051324;28;20033;-58
2023/06/28 08:45:38;;;;;;;18.77;9.90;;;;;;;;;;5050349;28;20021;-54
2023/06/28 08:48:04;;;;;;;18.35;11.02;;;;;;;;;;5051367;28;20033;-59
2023/06/28 08:50:30;;;;;;;17.42;9.55;;;;;;;;;;5051033;28;20477;-53
2023/06/28 08:52:57;;;;;;;19.75;10.75;;;;;;;;;;5051170;28;20072;-56
2023/06/28 08:55:24;;;;;;;18.25;10.35;;;;;;;;;;5050945;28;20151;-57
2023/06/28 08:57:50;;;;;;;16.98;10.30;;;;;;;;;;5051237;28;20025;-57
2023/06/28 09:00:16;;;;;;;26.95;11.27;;;;;;;;;;5050845;28;20079;-53
2023/06/28 09:02:43;;;;;;;16.63;10.23;;;;;;;;;;5051159;28;20017;-52
2023/06/28 09:05:10;;;;;;;19.33;10.65;;;;;;;;;;5050810;28;20025;-55
2023/06/28 09:07:38;;;;;;;19.60;11.25;;;;;;;;;;5051631;28;20053;-56
2023/06/28 09:10:05;;;;;;;17.63;10.30;;;;;;;;;;5071027;28;20021;-58
2023/06/28 09:12:31;;;;;;;18.10;10.70;;;;;;;;;;5071150;28;20023;-54
2023/06/28 09:14:58;;;;;;;18.88;10.68;;;;;;;;;;5070548;28;20059;-51
2023/06/28 09:17:24;;;;;;;16.80;11.10;;;;;;;;;;5070928;28;20388;-54
2023/06/28 09:19:51;;;;;;;17.50;10.75;;;;;;;;;;5070927;28;20024;-54
2023/06/28 09:22:17;;;;;;;18.58;10.18;;;;;;;;;;5070816;28;20033;-53
2023/06/28 09:24:44;;;;;;;16.08;10.32;;;;;;;;;;5070500;28;20345;-52
2023/06/28 09:27:12;;;;;;;18.10;10.65;;;;;;;;;;5069648;28;20044;-54
2023/06/28 09:29:38;;;;;;;17.90;10.93;;;;;;;;;;5071223;28;20400;-58
2023/06/28 09:32:05;;;;;;;16.90;11.10;;;;;;;;;;5070606;28;20024;-54
2023/06/28 09:34:31;;;;;;;16.48;10.68;;;;;;;;;;5070923;28;20021;-56
2023/06/28 09:36:57;;;;;;;18.20;10.70;;;;;;;;;;5069263;28;20512;-55
2023/06/28 09:39:26;;;;;;;17.10;10.70;;;;;;;;;;5066516;28;20035;-54
2023/06/28 09:41:53;;;;;;;17.88;11.15;;;;;;;;;;5062464;28;20032;-51
2023/06/28 09:44:29;;;;;;;18.95;11.40;;;;;;;;;;5062816;28;20021;-54
2023/06/28 09:47:02;;;;;;;17.98;11.35;;;;;;;;;;5062284;28;20538;-53
2023/06/28 09:49:28;;;;;;;18.10;11.35;;;;;;;;;;5061499;28;20139;-56
2023/06/28 09:51:58;;;;;;;21.45;11.43;;;;;;;;;;5052220;28;20049;-55
2023/06/28 09:54:45;;;;;;;17.15;11.55;;;;;;;;;;5069581;28;20028;-52
2023/06/28 09:57:12;;;;;;;23.08;12.20;;;;;;;;;;5062257;28;20474;-50
2023/06/28 09:59:39;;;;;;;18.58;10.95;;;;;;;;;;5054010;28;20068;-52
2023/06/28 10:02:06;;;;;;;20.13;11.30;;;;;;;;;;5053898;28;20124;-52
2023/06/28 10:04:34;;;;;;;19.13;11.60;;;;;;;;;;5057238;28;20078;-55
2023/06/28 10:07:00;;;;;;;23.52;12.13;;;;;;;;;;5073672;28;20031;-54
2023/06/28 10:09:28;;;;;;;20.90;11.77;;;;;;;;;;5064149;28;20017;-54
2023/06/28 10:11:56;;;;;;;18.80;11.88;;;;;;;;;;5053502;28;20032;-55
2023/06/28 10:14:24;;;;;;;16.88;12.00;;;;;;;;;;5053719;28;20079;-50
2023/06/28 10:16:52;;;;;;;18.83;11.50;;;;;;;;;;5065867;28;20023;-54
2023/06/28 10:19:18;;;;;;;17.85;11.07;;;;;;;;;;5065511;28;20328;-53
2023/06/28 10:21:44;;;;;;;18.17;11.10;;;;;;;;;;5070503;28;20438;-54
2023/06/28 10:24:10;;;;;;;18.02;10.93;;;;;;;;;;5068010;28;20045;-50
2023/06/28 10:26:37;;;;;;;18.35;10.75;;;;;;;;;;5073947;28;20048;-51
2023/06/28 10:29:03;;;;;;;17.25;10.20;;;;;;;;;;5073620;28;20111;-53
2023/06/28 10:31:29;;;;;;;17.45;10.10;;;;;;;;;;5065378;28;20048;-53
2023/06/28 10:33:57;;;;;;;20.33;10.30;;;;;;;;;;5065288;28;20060;-56
2023/06/28 10:36:26;;;;;;;18.63;10.60;;;;;;;;;;5073645;28;20465;-53
2023/06/28 10:38:52;;;;;;;20.35;11.93;;;;;;;;;;5073392;28;20066;-58
2023/06/28 10:41:19;;;;;;;22.58;13.70;;;;;;;;;;5062406;28;20054;-60
2023/06/28 10:43:45;;;;;;;20.42;13.25;;;;;;;;;;5064182;28;20037;-60
2023/06/28 10:46:24;;;;;;;20.48;12.82;;;;;;;;;;5071698;28;20040;-62
2023/06/28 10:48:54;;;;;;;20.35;14.50;;;;;;;;;;5070423;28;20047;-63
2023/06/28 10:51:23;;;;;;;23.25;13.45;;;;;;;;;;5071745;28;20392;-61
2023/06/28 10:53:53;;;;;;;20.48;13.90;;;;;;;;;;5071114;28;20021;-61
2023/06/28 10:56:20;;;;;;;20.42;14.15;;;;;;;;;;5072852;28;20099;-61
2023/06/28 10:58:52;;;;;;;20.02;13.38;;;;;;;;;;5072722;28;20103;-58
2023/06/28 11:01:38;;;;;;;19.63;13.35;;;;;;;;;;5073471;28;20542;-59
2023/06/28 11:04:16;;;;;;;22.38;13.02;;;;;;;;;;5073062;28;20505;-63
2023/06/28 11:06:42;;;;;;;19.38;13.00;;;;;;;;;;5072424;28;20103;-60
2023/06/28 11:09:19;;;;;;;20.65;13.23;;;;;;;;;;5073198;28;20032;-59
2023/06/28 11:11:59;;;;;;;20.80;12.98;;;;;;;;;;5073152;28;20509;-59
2023/06/28 11:14:31;;;;;;;19.75;13.32;;;;;;;;;;5072321;28;20028;-59
2023/06/28 11:17:06;;;;;;;20.42;13.75;;;;;;;;;;5072633;28;20025;-60
2023/06/28 11:19:32;;;;;;;21.08;13.52;;;;;;;;;;5072438;28;20115;-60
2023/06/28 11:21:59;;;;;;;19.33;13.57;;;;;;;;;;5072239;28;20073;-62
2023/06/28 11:24:46;;;;;;;20.40;13.30;;;;;;;;;;5072351;28;20034;-61
2023/06/28 11:27:17;;;;;;;22.13;13.90;;;;;;;;;;5072531;28;20093;-60
2023/06/28 11:29:52;;;;;;;20.00;12.52;;;;;;;;;;5072441;28;20081;-63
2023/06/28 11:32:22;;;;;;;18.75;13.00;;;;;;;;;;5072225;28;20115;-63
2023/06/28 11:34:49;;;;;;;19.77;12.43;;;;;;;;;;5070711;28;20039;-56
2023/06/28 11:37:15;;;;;;;19.23;12.52;;;;;;;;;;5072418;28;20031;-58
2023/06/28 11:39:44;;;;;;;21.42;12.63;;;;;;;;;;5072162;28;20058;-61
2023/06/28 11:42:16;;;;;;;18.58;12.23;;;;;;;;;;5072155;28;20024;-61
2023/06/28 11:44:49;;;;;;;21.00;12.40;;;;;;;;;;5071532;28;20032;-61
2023/06/28 11:47:21;;;;;;;20.95;12.88;;;;;;;;;;5071984;28;20036;-61
2023/06/28 11:49:47;;;;;;;22.95;13.63;;;;;;;;;;5072077;28;20388;-62
2023/06/28 11:52:17;;;;;;;21.27;13.00;;;;;;;;;;5071923;28;20420;-59
2023/06/28 11:54:43;;;;;;;19.92;13.07;;;;;;;;;;5070603;28;20016;-63
2023/06/28 11:57:09;;;;;;;20.60;14.15;;;;;;;;;;5071471;28;20323;-61
2023/06/28 11:59:37;;;;;;;21.80;14.48;;;;;;;;;;5071953;28;20024;-60
2023/06/28 12:02:07;;;;;;;23.25;15.35;;;;;;;;;;5070510;28;20025;-57
2023/06/28 12:04:34;;;;;;;21.83;15.23;;;;;;;;;;5071418;28;20039;-62
2023/06/28 12:07:01;;;;;;;22.85;15.10;;;;;;;;;;5071582;28;20051;-61
2023/06/28 12:09:31;;;;;;;21.77;15.65;;;;;;;;;;5069790;28;20025;-61
2023/06/28 12:11:59;;;;;;;21.65;17.30;;;;;;;;;;5071474;28;20029;-61
2023/06/28 12:14:27;;;;;;;23.50;15.95;;;;;;;;;;5071668;28;20078;-61
2023/06/28 12:16:53;;;;;;;20.70;16.00;;;;;;;;;;5071934;28;20040;-60
2023/06/28 12:19:20;;;;;;;21.77;16.33;;;;;;;;;;5069843;28;20127;-59
2023/06/28 12:21:47;;;;;;;22.55;16.77;;;;;;;;;;5071135;28;20060;-59
2023/06/28 12:24:21;;;;;;;23.67;17.00;;;;;;;;;;5071514;28;20021;-61
2023/06/28 12:26:51;;;;;;;23.27;16.42;;;;;;;;;;5071162;28;20029;-56
2023/06/28 12:29:20;;;;;;;21.90;17.10;;;;;;;;;;5071214;28;20111;-60
2023/06/28 12:31:47;;;;;;;20.85;16.33;;;;;;;;;;5071244;28;20028;-61
2023/06/28 12:34:14;;;;;;;22.52;15.57;;;;;;;;;;5069466;28;20075;-62
2023/06/28 12:36:40;;;;;;;22.13;15.13;;;;;;;;;;5071157;28;20100;-64
2023/06/28 12:39:07;;;;;;;23.90;15.75;;;;;;;;;;5070979;28;20143;-59
2023/06/28 12:41:33;;;;;;;24.70;16.05;;;;;;;;;;5070596;28;20051;-63
2023/06/28 12:43:59;;;;;;;20.08;14.48;;;;;;;;;;5070797;28;20013;-63
2023/06/28 12:46:28;;;;;;;22.20;15.52;;;;;;;;;;5071394;28;20430;-62
2023/06/28 12:48:55;;;;;;;22.10;15.48;;;;;;;;;;5071159;28;20493;-61
2023/06/28 12:51:21;;;;;;;23.60;16.50;;;;;;;;;;5071280;28;20031;-61
2023/06/28 12:53:47;;;;;;;23.20;15.38;;;;;;;;;;5071176;28;20039;-63
2023/06/28 12:56:13;;;;;;;22.67;16.08;;;;;;;;;;5070763;28;20025;-60
2023/06/28 12:58:39;;;;;;;21.33;15.63;;;;;;;;;;5070675;28;20020;-60
2023/06/28 13:01:05;;;;;;;21.02;15.25;;;;;;;;;;5070979;28;20099;-61
2023/06/28 13:03:31;;;;;;;22.52;15.57;;;;;;;;;;5070893;28;20564;-63
2023/06/28 13:05:57;;;;;;;21.38;14.55;;;;;;;;;;5070763;28;20021;-61
2023/06/28 13:08:25;;;;;;;22.70;15.63;;;;;;;;;;5070736;28;20055;-61
2023/06/28 13:10:51;;;;;;;;;;;;;;;;;;5071743;28;20433;-58
2023/06/28 13:13:17;;;;;;;23.40;15.43;;;;;;;;;;5070775;28;19958;-59
2023/06/28 13:15:43;;;;;;;22.83;15.48;;;;;;;;;;5070786;28;20025;-61
2023/06/28 13:18:09;;;;;;;24.85;15.55;;;;;;;;;;5070561;28;20099;-57
2023/06/28 13:20:35;;;;;;;22.73;15.25;;;;;;;;;;5070650;28;20381;-57
2023/06/28 13:23:01;;;;;;;25.45;17.38;;;;;;;;;;5070435;28;20040;-61
2023/06/28 13:25:27;;;;;;;25.83;16.77;;;;;;;;;;5070742;28;20530;-60
2023/06/28 13:27:53;;;;;;;20.33;15.25;;;;;;;;;;5070796;28;20047;-57
2023/06/28 13:30:20;;;;;;;22.00;14.90;;;;;;;;;;5071786;28;20052;-60
2023/06/28 13:32:46;;;;;;;22.42;14.63;;;;;;;;;;5074445;28;20020;-59
2023/06/28 13:35:12;;;;;;;21.13;13.15;;;;;;;;;;5074337;28;20029;-60
2023/06/28 13:37:38;;;;;;;22.75;13.05;;;;;;;;;;5074594;28;20027;-61
2023/06/28 13:40:05;;;;;;;22.13;13.25;;;;;;;;;;5074228;28;20112;-60
2023/06/28 13:42:31;;;;;;;22.15;13.05;;;;;;;;;;5074349;28;20029;-59
2023/06/28 13:44:57;;;;;;;22.75;12.55;;;;;;;;;;5070576;28;20028;-60
2023/06/28 13:47:23;;;;;;;24.08;13.02;;;;;;;;;;5071479;28;20024;-57
2023/06/28 13:49:49;;;;;;;19.60;11.85;;;;;;;;;;5070684;28;20021;-61
2023/06/28 13:52:17;;;;;;;19.35;11.70;;;;;;;;;;5069156;28;20463;-60
2023/06/28 13:54:43;;;;;;;22.60;13.60;;;;;;;;;;5074637;28;20124;-61
2023/06/28 13:57:09;;;;;;;24.45;12.02;;;;;;;;;;5074300;28;20520;-56
2023/06/28 13:59:35;;;;;;;21.52;12.27;;;;;;;;;;5071185;28;20032;-54
2023/06/28 14:02:01;;;;;;;19.33;12.15;;;;;;;;;;5063882;28;20029;-54
2023/06/28 14:04:27;;;;;;;19.83;12.02;;;;;;;;;;5065288;28;20409;-59
2023/06/28 14:06:53;;;;;;;22.98;11.55;;;;;;;;;;5072744;28;20029;-56
2023/06/28 14:09:19;;;;;;;22.08;12.57;;;;;;;;;;5073768;28;20039;-56
2023/06/28 14:11:45;;;;;;;23.02;12.52;;;;;;;;;;5073652;28;20024;-60
2023/06/28 14:14:11;;;;;;;20.85;11.98;;;;;;;;;;5073532;28;20389;-59
2023/06/28 14:16:37;;;;;;;21.77;11.85;;;;;;;;;;5073843;28;20116;-55
2023/06/28 14:19:03;;;;;;;19.30;11.40;;;;;;;;;;5073609;28;20462;-57